Map

Track Data

SID SEASON NUMBER BASIN SUBBASIN NAME ISO_TIME NATURE LAT LON WMO_WIND WMO_PRES WMO_AGENCY TRACK_TYPE DIST2LAND LANDFALL IFLAG USA_AGENCY USA_ATCF_ID USA_LAT USA_LON USA_RECORD USA_STATUS USA_WIND USA_PRES USA_SSHS USA_R34_NE USA_R34_SE USA_R34_SW USA_R34_NW USA_R50_NE USA_R50_SE USA_R50_SW USA_R50_NW USA_R64_NE USA_R64_SE USA_R64_SW USA_R64_NW USA_POCI USA_ROCI USA_RMW USA_EYE TOKYO_LAT TOKYO_LON TOKYO_GRADE TOKYO_WIND TOKYO_PRES TOKYO_R50_DIR TOKYO_R50_LONG TOKYO_R50_SHORT TOKYO_R30_DIR TOKYO_R30_LONG TOKYO_R30_SHORT TOKYO_LAND CMA_LAT CMA_LON CMA_CAT CMA_WIND CMA_PRES HKO_LAT HKO_LON HKO_CAT HKO_WIND HKO_PRES NEWDELHI_LAT NEWDELHI_LON NEWDELHI_GRADE NEWDELHI_WIND NEWDELHI_PRES NEWDELHI_CI NEWDELHI_DP NEWDELHI_POCI REUNION_LAT REUNION_LON REUNION_TYPE REUNION_WIND REUNION_PRES REUNION_TNUM REUNION_CI REUNION_RMW REUNION_R34_NE REUNION_R34_SE REUNION_R34_SW REUNION_R34_NW REUNION_R50_NE REUNION_R50_SE REUNION_R50_SW REUNION_R50_NW REUNION_R64_NE REUNION_R64_SE REUNION_R64_SW REUNION_R64_NW BOM_LAT BOM_LON BOM_TYPE BOM_WIND BOM_PRES BOM_TNUM BOM_CI BOM_RMW BOM_R34_NE BOM_R34_SE BOM_R34_SW BOM_R34_NW BOM_R50_NE BOM_R50_SE BOM_R50_SW BOM_R50_NW BOM_R64_NE BOM_R64_SE BOM_R64_SW BOM_R64_NW BOM_ROCI BOM_POCI BOM_EYE BOM_POS_METHOD BOM_PRES_METHOD NADI_LAT NADI_LON NADI_CAT NADI_WIND NADI_PRES WELLINGTON_LAT WELLINGTON_LON WELLINGTON_WIND WELLINGTON_PRES DS824_LAT DS824_LON DS824_STAGE DS824_WIND DS824_PRES TD9636_LAT TD9636_LON TD9636_STAGE TD9636_WIND TD9636_PRES TD9635_LAT TD9635_LON TD9635_WIND TD9635_PRES TD9635_ROCI NEUMANN_LAT NEUMANN_LON NEUMANN_CLASS NEUMANN_WIND NEUMANN_PRES MLC_LAT MLC_LON MLC_CLASS MLC_WIND MLC_PRES USA_GUST BOM_GUST BOM_GUST_PER REUNION_GUST REUNION_GUST_PER USA_SEAHGT USA_SEARAD_NE USA_SEARAD_SE USA_SEARAD_SW USA_SEARAD_NW STORM_SPEED STORM_DIR
1859101S10091 1859 9 SI WA NOT_NAMED 1859-04-11 06:00:00 NR -10.4000 90.5000 spur-split 1346 1346 _____O________ -1 -10.4000 90.5000 99 9.90000 2 270
1859101S10091 1859 9 SI WA NOT_NAMED 1859-04-11 09:00:00 NR -10.3993 90.3808 spur-split 1354 1354 _____P________ -1 -10.3993 90.3808 99 2 270
1859101S10091 1859 9 SI WA NOT_NAMED 1859-04-11 12:00:00 NR -10.3999 90.2516 spur-split 1361 1361 _____P________ -1 -10.3999 90.2516 99 3 269
1859101S10091 1859 9 SI WA NOT_NAMED 1859-04-11 15:00:00 NR -10.4030 90.1023 spur-split 1377 1377 _____P________ -1 -10.4030 90.1023 99 3 268
1859101S10091 1859 9 SI MM NOT_NAMED 1859-04-11 18:00:00 NR -10.4099 89.9227 spur-split 1393 1393 _____P________ -1 -10.4099 89.9227 99 4 267
1859101S10091 1859 9 SI MM NOT_NAMED 1859-04-11 21:00:00 NR -10.4219 89.7028 spur-split 1408 1408 _____P________ -1 -10.4219 89.7028 99 5 266
1859101S10091 1859 9 SI MM NOT_NAMED 1859-04-12 00:00:00 NR -10.4402 89.4325 spur-split 1433 1433 _____P________ -1 -10.4402 89.4325 99 6 266
1859101S10091 1859 9 SI MM NOT_NAMED 1859-04-12 03:00:00 NR -10.4658 89.1016 spur-split 1464 1464 _____P________ -1 -10.4658 89.1016 99 7 265
1859101S10091 1859 9 SI MM NOT_NAMED 1859-04-12 06:00:00 NR -10.5000 88.7000 spur-split 1497 1497 _____O________ -1 -10.5000 88.7000 99 9.90000 9 265
1859101S10091 1859 9 SI MM NOT_NAMED 1859-04-12 09:00:00 NR -10.5438 88.2215 spur-split 1539 1539 _____P________ -1 -10.5438 88.2215 99 10 264
1859101S10091 1859 9 SI MM NOT_NAMED 1859-04-12 12:00:00 NR -10.5992 87.6762 spur-split 1589 1589 _____P________ -1 -10.5992 87.6762 99 11 264
1859101S10091 1859 9 SI MM NOT_NAMED 1859-04-12 15:00:00 NR -10.6683 87.0785 spur-split 1648 1648 _____P________ -1 -10.6683 87.0785 99 12 263
1859101S10091 1859 9 SI MM NOT_NAMED 1859-04-12 18:00:00 NR -10.7533 86.4425 spur-split 1716 1716 _____P________ -1 -10.7533 86.4425 99 13 262
1859101S10091 1859 9 SI MM NOT_NAMED 1859-04-12 21:00:00 NR -10.8565 85.7825 spur-split 1777 1777 _____P________ -1 -10.8565 85.7825 99 13 260
1859101S10091 1859 9 SI MM NOT_NAMED 1859-04-13 00:00:00 NR -10.9803 85.1127 spur-split 1846 1846 _____P________ -1 -10.9803 85.1127 99 13 258
1859101S10091 1859 9 SI MM NOT_NAMED 1859-04-13 03:00:00 NR -11.1272 84.4472 spur-split 1917 1917 _____P________ -1 -11.1272 84.4472 99 13 256
1859101S10091 1859 9 SI MM NOT_NAMED 1859-04-13 06:00:00 NR -11.3000 83.8000 spur-split 1959 1957 _____O________ -1 -11.3000 83.8000 99 9.90000 13 253
1859101S10091 1859 9 SI MM NOT_NAMED 1859-04-13 09:00:00 NR -11.5158 83.1619 spur-split 1970 1969 _____P________ -1 -11.5158 83.1619 99 13 250
1859101S10091 1859 9 SI MM NOT_NAMED 1859-04-13 12:00:00 NR -11.7609 82.5259 spur-split 1994 1992 _____P________ -1 -11.7609 82.5259 99 13 247
1859101S10091 1859 9 SI MM NOT_NAMED 1859-04-13 15:00:00 NR -12.0272 81.9032 spur-split 2010 2010 _____P________ -1 -12.0272 81.9032 99 13 245
1859101S10091 1859 9 SI MM NOT_NAMED 1859-04-13 18:00:00 NR -12.3068 81.3055 spur-split 2040 2040 _____P________ -1 -12.3068 81.3055 99 13 244
1859101S10091 1859 9 SI MM NOT_NAMED 1859-04-13 21:00:00 NR -12.5917 80.7444 spur-split 2072 2072 _____P________ -1 -12.5917 80.7444 99 12 242
1859101S10091 1859 9 SI MM NOT_NAMED 1859-04-14 00:00:00 NR -12.8740 80.2318 spur-split 2106 2106 _____P________ -1 -12.8740 80.2318 99 11 239
1859101S10091 1859 9 SI MM NOT_NAMED 1859-04-14 03:00:00 NR -13.1460 79.7796 spur-split 2130 2130 _____P________ -1 -13.1460 79.7796 99 10 237
1859101S10091 1859 9 SI MM NOT_NAMED 1859-04-14 06:00:00 NR -13.4000 79.4000 reunion spur-split 2166 2166 _____O________ -1 -13.4000 79.4000 99 9.90000 8 234
1859101S10091 1859 9 SI MM NOT_NAMED 1859-04-14 09:00:00 NR -13.6301 79.1013 spur-split 2190 2190 _____P________ -1 -13.6301 79.1013 99 7 229
1859101S10091 1859 9 SI MM NOT_NAMED 1859-04-14 12:00:00 NR -13.8380 78.8769 spur-split 2215 2215 _____P________ -1 -13.8380 78.8769 99 5 223
1859101S10091 1859 9 SI MM NOT_NAMED 1859-04-14 15:00:00 NR -14.0269 78.7163 spur-split 2239 2239 _____P________ -1 -14.0269 78.7163 99 4 216
1859101S10091 1859 9 SI MM NOT_NAMED 1859-04-14 18:00:00 NR -14.2002 78.6090 spur-split 2262 2262 _____P________ -1 -14.2002 78.6090 99 4 206
1859101S10091 1859 9 SI MM NOT_NAMED 1859-04-14 21:00:00 NR -14.3610 78.5443 spur-split 2286 2286 _____P________ -1 -14.3610 78.5443 99 3 197
1859101S10091 1859 9 SI MM NOT_NAMED 1859-04-15 00:00:00 NR -14.5125 78.5117 spur-split 2288 2284 _____P________ -1 -14.5125 78.5117 99 3 187
1859101S10091 1859 9 SI MM NOT_NAMED 1859-04-15 03:00:00 NR -14.6578 78.5005 spur-split 2281 2277 _____P________ -1 -14.6578 78.5005 99 3 183
1859101S10091 1859 9 SI MM NOT_NAMED 1859-04-15 06:00:00 NR -14.8000 78.5000 reunion spur-split 2277 _____O________ -1 -14.8000 78.5000 99 9.90000 3 185

About IBTrACS Database

This database is a web-friendly format of International Best Track Archive for Climate Stewardship (IBTrACS), a global best track data archive curated by NOAA dating back to 1842.

Updated: 2021-10-21